createdAt,value
2018-11-29T00:02:21.113Z,67.95
2018-11-29T00:05:27.762Z,70.57
2018-11-29T00:08:41.789Z,67.17
2018-11-29T00:11:37.978Z,70.50
2018-11-29T00:14:34.635Z,70.85
2018-11-29T00:17:31.274Z,70.32
2018-11-29T00:20:30.623Z,73.97
2018-11-29T00:23:26.748Z,72.65
2018-11-29T00:26:23.368Z,73.70
2018-11-29T00:29:19.659Z,74.65
2018-11-29T00:32:16.875Z,76.40
2018-11-29T00:35:14.899Z,77.05
2018-11-29T00:38:11.183Z,75.28
2018-11-29T00:41:11.423Z,74.00
2018-11-29T00:44:07.280Z,75.95
2018-11-29T00:47:03.387Z,74.47
2018-11-29T00:49:59.241Z,72.82
2018-11-29T00:52:55.838Z,73.83
2018-11-29T00:55:54.317Z,73.75
2018-11-29T00:58:50.684Z,73.45
2018-11-29T01:02:04.672Z,73.22
2018-11-29T01:05:00.552Z,74.70
2018-11-29T01:07:58.915Z,76.82
2018-11-29T01:10:55.935Z,75.03
2018-11-29T01:13:52.015Z,74.03
2018-11-29T01:16:48.301Z,76.05
2018-11-29T01:19:44.783Z,79.75
2018-11-29T01:22:41.333Z,78.50
2018-11-29T01:25:36.804Z,80.85
2018-11-29T01:28:33.201Z,80.83
2018-11-29T01:31:29.194Z,84.32
2018-11-29T01:34:25.785Z,82.10
2018-11-29T01:37:21.847Z,84.42
2018-11-29T01:40:25.073Z,84.97
2018-11-29T01:43:20.500Z,83.00
2018-11-29T01:46:16.947Z,84.25
2018-11-29T01:49:12.881Z,83.97
2018-11-29T01:52:08.947Z,85.07
2018-11-29T01:55:04.769Z,85.20
2018-11-29T01:58:01.070Z,89.55
2018-11-29T02:00:57.199Z,80.72
2018-11-29T02:03:53.246Z,81.08
2018-11-29T02:06:49.199Z,85.80
2018-11-29T02:09:45.354Z,88.45
2018-11-29T02:12:41.440Z,89.80
2018-11-29T02:15:37.432Z,87.40
2018-11-29T02:18:33.503Z,90.20
2018-11-29T02:21:32.550Z,85.42
2018-11-29T02:24:29.031Z,88.33
2018-11-29T02:27:24.910Z,88.12
2018-11-29T02:30:30.744Z,89.72
2018-11-29T02:33:24.147Z,90.40
2018-11-29T02:36:20.385Z,91.25
2018-11-29T02:39:17.418Z,91.80
2018-11-29T02:42:13.766Z,92.27
2018-11-29T02:45:11.088Z,93.45
2018-11-29T02:48:07.887Z,92.27
2018-11-29T02:51:03.799Z,97.72
2018-11-29T02:54:00.212Z,94.40
2018-11-29T02:56:56.659Z,89.35
2018-11-29T02:59:53.310Z,88.20
2018-11-29T03:02:50.034Z,89.47
2018-11-29T03:05:46.113Z,87.67
2018-11-29T03:08:43.112Z,94.03
2018-11-29T03:11:42.077Z,88.87
2018-11-29T03:14:38.760Z,90.65
2018-11-29T03:17:35.761Z,91.67
2018-11-29T03:20:32.148Z,88.45
2018-11-29T03:23:27.946Z,86.00
2018-11-29T03:26:24.099Z,88.62
2018-11-29T03:29:19.970Z,85.92
2018-11-29T03:32:17.079Z,87.45
2018-11-29T03:35:13.895Z,87.20
2018-11-29T03:38:10.479Z,92.10
2018-11-29T03:41:08.097Z,98.03
2018-11-29T03:44:16.365Z,96.28
2018-11-29T03:47:25.434Z,96.37
2018-11-29T03:50:23.566Z,97.08
2018-11-29T03:53:20.513Z,94.22
2018-11-29T03:56:16.496Z,91.57
2018-11-29T03:59:12.679Z,101.42
2018-11-29T04:02:09.255Z,99.67
2018-11-29T04:05:05.812Z,99.10
2018-11-29T04:08:02.222Z,93.40
2018-11-29T04:11:02.678Z,99.17
2018-11-29T04:13:55.665Z,97.97
2018-11-29T04:16:51.838Z,99.03
2018-11-29T04:19:48.682Z,100.30
2018-11-29T04:22:45.315Z,100.92
2018-11-29T04:25:41.726Z,99.67
2018-11-29T04:28:37.847Z,102.50
2018-11-29T04:31:35.787Z,99.32
2018-11-29T04:34:32.753Z,101.62
2018-11-29T04:37:29.391Z,98.15
2018-11-29T04:40:26.002Z,97.92
2018-11-29T04:43:22.133Z,101.30
2018-11-29T04:46:52.040Z,94.97
2018-11-29T04:49:48.539Z,95.87
2018-11-29T04:52:44.571Z,96.80
2018-11-29T04:55:40.876Z,99.45
2018-11-29T04:58:36.750Z,98.52
2018-11-29T05:01:32.698Z,97.30
2018-11-29T05:04:31.605Z,93.05
2018-11-29T05:07:27.825Z,89.40
2018-11-29T05:10:25.174Z,90.07
2018-11-29T05:13:22.630Z,90.62
2018-11-29T05:16:20.103Z,89.83
2018-11-29T05:19:18.103Z,85.60
2018-11-29T05:22:15.885Z,83.55
2018-11-29T05:25:14.121Z,85.05
2018-11-29T05:28:15.118Z,79.67
2018-11-29T05:31:13.131Z,79.25
2018-11-29T05:34:11.021Z,78.95
2018-11-29T05:37:08.332Z,81.92
2018-11-29T05:40:06.425Z,79.37
2018-11-29T05:43:03.506Z,77.90
2018-11-29T05:46:01.110Z,76.42
2018-11-29T05:48:58.728Z,76.80
2018-11-29T05:51:54.924Z,75.30
2018-11-29T05:54:56.804Z,74.37
2018-11-29T05:57:56.323Z,72.32
2018-11-29T06:00:54.031Z,74.32
2018-11-29T06:03:56.508Z,71.42
2018-11-29T06:07:02.791Z,72.67
2018-11-29T06:10:07.964Z,70.15
2018-11-29T06:13:05.538Z,68.25
2018-11-29T06:16:03.792Z,67.42
2018-11-29T06:19:09.974Z,65.08
2018-11-29T06:22:07.170Z,67.85
2018-11-29T06:25:03.744Z,67.15
2018-11-29T06:28:03.172Z,62.55
2018-11-29T06:31:00.510Z,63.98
2018-11-29T06:33:56.750Z,64.85
2018-11-29T06:37:00.370Z,63.23
2018-11-29T06:39:56.789Z,63.48
2018-11-29T06:42:53.109Z,61.90
2018-11-29T06:45:50.691Z,63.23
2018-11-29T06:48:50.489Z,63.33
2018-11-29T06:51:47.148Z,62.20
2018-11-29T06:54:43.132Z,59.10
2018-11-29T06:57:39.662Z,60.88
2018-11-29T07:00:35.630Z,58.05
2018-11-29T07:03:32.573Z,60.23
2018-11-29T07:06:34.664Z,59.75
2018-11-29T07:09:28.402Z,59.23
2018-11-29T07:12:26.728Z,57.03
2018-11-29T07:15:27.509Z,56.45
2018-11-29T07:18:26.913Z,55.00
2018-11-29T07:22:10.195Z,56.18
2018-11-29T07:25:09.020Z,51.90
2018-11-29T07:28:10.956Z,53.23
2018-11-29T07:31:07.879Z,53.42
2018-11-29T07:34:08.774Z,54.23
2018-11-29T07:37:17.262Z,52.65
2018-11-29T07:40:22.625Z,54.98
2018-11-29T07:43:21.185Z,52.65
2018-11-29T07:46:40.238Z,53.35
2018-11-29T07:49:34.364Z,52.48
2018-11-29T07:52:31.035Z,52.17
2018-11-29T07:55:28.260Z,53.70
2018-11-29T07:58:34.182Z,50.90
2018-11-29T08:01:32.723Z,51.63
2018-11-29T08:04:31.233Z,50.88
2018-11-29T08:07:29.014Z,51.30
2018-11-29T08:10:28.627Z,49.58
2018-11-29T08:13:25.189Z,49.10
2018-11-29T08:16:22.350Z,48.10
2018-11-29T08:19:19.912Z,49.88
2018-11-29T08:22:17.060Z,50.40
2018-11-29T08:25:13.709Z,48.17
2018-11-29T08:28:10.114Z,49.88
2018-11-29T08:31:06.236Z,48.92
2018-11-29T08:34:02.660Z,47.83
2018-11-29T08:36:58.578Z,49.45
2018-11-29T08:39:54.672Z,47.13
2018-11-29T08:42:51.565Z,48.83
2018-11-29T08:45:48.422Z,48.33
2018-11-29T08:48:45.724Z,47.27
2018-11-29T08:51:43.212Z,47.17
2018-11-29T08:54:40.329Z,47.40
2018-11-29T08:57:38.499Z,46.33
2018-11-29T09:00:38.323Z,46.08
2018-11-29T09:03:38.491Z,48.45
2018-11-29T09:06:37.887Z,45.98
2018-11-29T09:09:35.814Z,46.88
2018-11-29T09:12:33.598Z,48.05
2018-11-29T09:15:33.303Z,47.10
2018-11-29T09:18:49.899Z,45.80
2018-11-29T09:21:57.219Z,46.10
2018-11-29T09:25:05.017Z,53.78
2018-11-29T09:28:12.184Z,48.63
2018-11-29T09:31:11.312Z,47.98
2018-11-29T09:34:10.066Z,47.45
2018-11-29T09:37:09.136Z,46.28
2018-11-29T09:40:08.472Z,48.63
2018-11-29T09:43:07.735Z,47.50
2018-11-29T09:46:07.828Z,45.78
2018-11-29T09:49:07.651Z,45.28
2018-11-29T09:52:05.676Z,46.35
2018-11-29T09:55:04.692Z,45.67
2018-11-29T09:58:05.139Z,46.92
2018-11-29T10:01:03.907Z,46.48
2018-11-29T10:04:02.994Z,45.50
2018-11-29T10:07:02.125Z,46.77
2018-11-29T10:10:00.422Z,46.33
2018-11-29T10:13:03.451Z,46.65
2018-11-29T10:15:59.543Z,45.78
2018-11-29T10:18:59.112Z,46.23
2018-11-29T10:22:02.166Z,47.45
2018-11-29T10:25:00.796Z,47.27
2018-11-29T10:28:13.201Z,47.35
2018-11-29T10:31:19.186Z,46.98
2018-11-29T10:34:17.858Z,47.70
2018-11-29T10:37:17.285Z,47.20
2018-11-29T10:40:19.556Z,47.43
2018-11-29T10:43:19.180Z,46.85
2018-11-29T10:46:17.018Z,47.73
2018-11-29T10:49:15.398Z,48.08
2018-11-29T10:52:15.750Z,45.60
2018-11-29T10:55:18.775Z,46.00
2018-11-29T10:58:21.851Z,46.30
2018-11-29T11:01:53.101Z,45.30
2018-11-29T11:04:50.531Z,44.38
2018-11-29T11:07:47.861Z,43.73
2018-11-29T11:10:45.565Z,43.95
2018-11-29T11:13:43.396Z,43.28
2018-11-29T11:16:40.960Z,41.75
2018-11-29T11:19:41.012Z,42.78
2018-11-29T11:22:39.854Z,41.37
2018-11-29T11:25:37.862Z,41.23
2018-11-29T11:28:35.698Z,39.50
2018-11-29T11:31:34.761Z,41.08
2018-11-29T11:34:34.207Z,39.78
2018-11-29T11:37:31.162Z,40.73
2018-11-29T11:40:29.119Z,39.60
2018-11-29T11:43:27.564Z,38.75
2018-11-29T11:46:25.339Z,39.48
2018-11-29T11:49:23.582Z,38.98
2018-11-29T11:52:21.252Z,38.50
2018-11-29T11:55:19.412Z,39.03
2018-11-29T11:58:17.765Z,39.35
2018-11-29T12:01:16.761Z,38.90
2018-11-29T12:04:14.285Z,38.80
2018-11-29T12:07:16.544Z,37.75
2018-11-29T12:10:24.578Z,39.88
2018-11-29T12:13:22.230Z,37.67
2018-11-29T12:16:19.968Z,39.27
2018-11-29T12:19:17.585Z,40.10
2018-11-29T12:22:18.221Z,38.48
2018-11-29T12:25:34.578Z,41.05
2018-11-29T12:28:32.553Z,39.53
2018-11-29T12:31:29.991Z,38.42
2018-11-29T12:34:27.573Z,40.00
2018-11-29T12:37:25.046Z,38.75
2018-11-29T12:40:23.140Z,39.00
2018-11-29T12:43:21.230Z,39.85
2018-11-29T12:46:18.298Z,43.55
2018-11-29T12:49:15.568Z,41.42
2018-11-29T12:52:12.977Z,43.95
2018-11-29T12:55:15.106Z,42.65
2018-11-29T12:58:15.523Z,41.50
2018-11-29T13:01:10.332Z,45.10
2018-11-29T13:04:10.695Z,43.52
2018-11-29T13:07:11.585Z,44.08
2018-11-29T13:10:14.457Z,44.05
2018-11-29T13:13:12.306Z,44.67
2018-11-29T13:16:09.283Z,45.23
2018-11-29T13:19:06.600Z,44.00
2018-11-29T13:22:03.768Z,44.33
2018-11-29T13:25:03.015Z,46.77
2018-11-29T13:28:02.906Z,47.75
2018-11-29T13:30:59.871Z,47.25
2018-11-29T13:33:56.794Z,48.30
2018-11-29T13:36:53.342Z,48.13
2018-11-29T13:39:50.390Z,50.33
2018-11-29T13:42:47.027Z,48.13
2018-11-29T13:45:44.114Z,48.85
2018-11-29T13:48:41.870Z,50.40
2018-11-29T13:51:38.594Z,50.58
2018-11-29T13:54:35.574Z,49.90
2018-11-29T13:57:32.571Z,48.80
2018-11-29T14:00:33.520Z,50.92
2018-11-29T14:03:30.672Z,51.28
2018-11-29T14:06:27.931Z,51.53
2018-11-29T14:09:25.717Z,49.53
2018-11-29T14:12:22.511Z,50.30
2018-11-29T14:15:30.220Z,52.88
2018-11-29T14:18:27.004Z,50.28
2018-11-29T14:21:23.726Z,53.70
2018-11-29T14:24:20.550Z,52.20
2018-11-29T14:27:17.655Z,51.23
2018-11-29T14:30:23.128Z,52.75
2018-11-29T14:33:20.172Z,53.17
2018-11-29T14:36:17.393Z,52.55
2018-11-29T14:39:14.535Z,52.50
2018-11-29T14:42:15.542Z,52.55
2018-11-29T14:45:20.829Z,53.68
2018-11-29T14:48:14.709Z,51.28
2018-11-29T14:51:12.039Z,49.95
2018-11-29T14:54:08.794Z,52.05
2018-11-29T14:57:05.658Z,53.60
2018-11-29T15:00:09.153Z,54.85
2018-11-29T15:03:07.041Z,55.10
2018-11-29T15:06:04.946Z,52.90
2018-11-29T15:09:02.155Z,55.60
2018-11-29T15:11:59.365Z,53.55
2018-11-29T15:14:56.952Z,55.03
2018-11-29T15:17:54.398Z,54.75
2018-11-29T15:20:58.370Z,55.75
2018-11-29T15:23:59.774Z,53.48
2018-11-29T15:26:56.586Z,55.35
2018-11-29T15:29:53.633Z,52.45
2018-11-29T15:32:50.469Z,52.27
2018-11-29T15:35:46.940Z,55.50
2018-11-29T15:38:43.725Z,53.87
2018-11-29T15:41:40.486Z,54.85
2018-11-29T15:44:37.315Z,53.45
2018-11-29T15:47:34.466Z,54.55
2018-11-29T15:50:31.685Z,55.20
2018-11-29T15:53:28.815Z,53.70
2018-11-29T15:56:25.700Z,54.77
2018-11-29T15:59:22.574Z,54.20
2018-11-29T16:02:19.857Z,54.77
2018-11-29T16:05:16.959Z,56.37
2018-11-29T16:08:14.628Z,57.13
2018-11-29T16:11:11.524Z,55.95
2018-11-29T16:14:08.465Z,54.33
2018-11-29T16:17:06.221Z,55.65
2018-11-29T16:20:03.565Z,56.60
2018-11-29T16:23:00.000Z,58.48
2018-11-29T16:25:58.068Z,59.83
2018-11-29T16:28:57.785Z,58.52
2018-11-29T16:31:55.224Z,59.27
2018-11-29T16:34:52.387Z,58.92
2018-11-29T16:37:49.692Z,57.00
2018-11-29T16:40:47.166Z,57.95
2018-11-29T16:43:45.894Z,58.35
2018-11-29T16:46:43.851Z,57.60
2018-11-29T16:49:41.854Z,58.10
2018-11-29T16:52:39.083Z,60.45
2018-11-29T16:55:36.473Z,57.93
2018-11-29T16:58:35.394Z,59.42
2018-11-29T17:01:32.587Z,57.98
2018-11-29T17:04:29.674Z,60.35
2018-11-29T17:07:26.979Z,60.55
2018-11-29T17:10:25.155Z,60.90
2018-11-29T17:13:25.735Z,59.75
2018-11-29T17:16:22.844Z,58.75
2018-11-29T17:19:22.775Z,59.88
2018-11-29T17:22:20.160Z,58.78
2018-11-29T17:25:17.908Z,60.12
2018-11-29T17:28:14.876Z,58.52
2018-11-29T17:31:11.927Z,60.95
2018-11-29T17:34:07.953Z,60.10
2018-11-29T17:37:04.148Z,61.08
2018-11-29T17:39:59.968Z,61.53
2018-11-29T17:42:56.902Z,60.85
2018-11-29T17:45:53.017Z,60.17
2018-11-29T17:48:49.076Z,62.53
2018-11-29T17:51:47.712Z,62.75
2018-11-29T17:54:44.843Z,60.38
2018-11-29T17:57:41.026Z,61.42
2018-11-29T18:00:41.561Z,64.20
2018-11-29T18:03:37.785Z,62.13
2018-11-29T18:06:34.065Z,62.65
2018-11-29T18:09:29.849Z,62.08
2018-11-29T18:12:26.322Z,61.55
2018-11-29T18:15:33.075Z,60.88
2018-11-29T18:18:29.453Z,65.25
2018-11-29T18:21:25.566Z,61.13
2018-11-29T18:24:21.453Z,63.87
2018-11-29T18:27:17.698Z,61.35
2018-11-29T18:30:23.819Z,61.60
2018-11-29T18:33:20.253Z,61.45
2018-11-29T18:36:16.385Z,60.67
2018-11-29T18:39:14.778Z,64.05
2018-11-29T18:42:10.789Z,61.98
2018-11-29T18:45:17.552Z,63.08
2018-11-29T18:48:14.124Z,65.35
2018-11-29T18:51:10.430Z,65.17
2018-11-29T18:54:06.918Z,64.30
2018-11-29T18:57:03.664Z,63.52
2018-11-29T18:59:59.640Z,67.22
2018-11-29T19:02:57.142Z,64.20
2018-11-29T19:05:51.879Z,64.10
2018-11-29T19:08:48.708Z,63.50
2018-11-29T19:11:45.126Z,63.42
2018-11-29T19:14:41.856Z,64.50
2018-11-29T19:17:38.860Z,64.12
2018-11-29T19:20:35.202Z,66.37
2018-11-29T19:23:31.666Z,65.47
2018-11-29T19:26:27.949Z,66.95
2018-11-29T19:29:24.315Z,67.22
2018-11-29T19:32:20.657Z,66.53
2018-11-29T19:35:17.290Z,69.65
2018-11-29T19:38:14.158Z,67.25
2018-11-29T19:41:10.150Z,69.55
2018-11-29T19:44:06.359Z,66.95
2018-11-29T19:47:03.538Z,68.42
2018-11-29T19:49:59.655Z,66.22
2018-11-29T19:52:59.904Z,67.15
2018-11-29T19:56:03.118Z,67.80
2018-11-29T19:58:59.224Z,70.55
2018-11-29T20:01:55.702Z,67.15
2018-11-29T20:04:55.285Z,68.62
2018-11-29T20:07:51.738Z,67.58
2018-11-29T20:10:48.791Z,69.85
2018-11-29T20:13:45.855Z,66.95
2018-11-29T20:16:42.132Z,71.37
2018-11-29T20:19:38.293Z,69.97
2018-11-29T20:22:34.545Z,68.72
2018-11-29T20:25:31.409Z,66.50
2018-11-29T20:28:27.272Z,67.47
2018-11-29T20:31:23.290Z,69.25
2018-11-29T20:34:22.548Z,68.00
2018-11-29T20:37:18.828Z,66.55
2018-11-29T20:40:26.109Z,67.47
2018-11-29T20:43:25.393Z,67.47
2018-11-29T20:46:21.626Z,66.02
2018-11-29T20:49:18.079Z,67.30
2018-11-29T20:52:14.742Z,67.72
2018-11-29T20:55:13.248Z,68.90
2018-11-29T20:58:09.946Z,67.45
2018-11-29T21:01:07.276Z,69.75
2018-11-29T21:04:03.678Z,66.22
2018-11-29T21:07:02.688Z,67.97
2018-11-29T21:10:02.899Z,70.62
2018-11-29T21:12:55.465Z,68.95
2018-11-29T21:15:51.664Z,69.82
2018-11-29T21:18:48.080Z,69.75
2018-11-29T21:21:44.603Z,68.72
2018-11-29T21:24:40.639Z,68.70
2018-11-29T21:27:36.654Z,67.85
2018-11-29T21:30:33.607Z,66.70
2018-11-29T21:33:29.346Z,69.97
2018-11-29T21:36:25.690Z,69.07
2018-11-29T21:39:28.906Z,68.65
2018-11-29T21:42:21.735Z,68.72
2018-11-29T21:45:18.855Z,68.45
2018-11-29T21:48:15.073Z,66.97
2018-11-29T21:51:11.747Z,67.95
2018-11-29T21:54:07.980Z,69.40
2018-11-29T21:57:04.720Z,68.20
2018-11-29T22:00:00.907Z,67.70
2018-11-29T22:02:58.355Z,68.00
2018-11-29T22:05:54.478Z,70.03
2018-11-29T22:08:50.893Z,69.15
2018-11-29T22:11:56.440Z,68.55
2018-11-29T22:14:53.375Z,69.15
2018-11-29T22:18:17.521Z,67.15
2018-11-29T22:21:14.185Z,67.00
2018-11-29T22:24:12.734Z,67.25
2018-11-29T22:27:08.987Z,67.22
2018-11-29T22:30:05.071Z,72.30
2018-11-29T22:33:01.997Z,70.85
2018-11-29T22:35:58.392Z,68.35
2018-11-29T22:38:58.096Z,69.15
2018-11-29T22:41:54.404Z,69.70
2018-11-29T22:44:50.869Z,67.67
2018-11-29T22:47:47.807Z,65.22
2018-11-29T22:50:46.392Z,66.82
2018-11-29T22:53:45.480Z,70.45
2018-11-29T22:56:39.784Z,68.78
2018-11-29T22:59:36.105Z,66.33
2018-11-29T23:02:32.459Z,68.00
2018-11-29T23:05:32.463Z,68.83
2018-11-29T23:08:28.779Z,68.45
2018-11-29T23:11:25.689Z,67.50
2018-11-29T23:14:21.765Z,67.25
2018-11-29T23:17:18.170Z,66.42
2018-11-29T23:20:20.904Z,68.12
2018-11-29T23:23:17.310Z,72.95
2018-11-29T23:26:13.610Z,73.47
2018-11-29T23:29:10.267Z,68.35
2018-11-29T23:32:06.273Z,74.25
2018-11-29T23:35:02.682Z,80.87
2018-11-29T23:38:01.615Z,72.35
2018-11-29T23:40:58.014Z,69.15
2018-11-29T23:43:54.473Z,74.75
2018-11-29T23:46:52.042Z,73.22
2018-11-29T23:49:51.219Z,76.82
2018-11-29T23:52:47.812Z,80.20
2018-11-29T23:55:47.814Z,75.40
2018-11-29T23:58:44.305Z,75.12
